createdAt,value
2022-11-24T00:01:12.211Z,100.00
2022-11-24T00:03:39.409Z,100.00
2022-11-24T00:06:09.289Z,100.00
2022-11-24T00:08:37.678Z,100.00
2022-11-24T00:11:07.453Z,100.00
2022-11-24T00:13:35.247Z,100.00
2022-11-24T00:16:27.399Z,100.00
2022-11-24T00:18:56.378Z,100.00
2022-11-24T00:21:24.902Z,100.00
2022-11-24T00:23:52.974Z,100.00
2022-11-24T00:26:25.033Z,100.00
2022-11-24T00:28:53.727Z,100.00
2022-11-24T00:31:35.488Z,100.00
2022-11-24T00:34:05.327Z,100.00
2022-11-24T00:36:34.274Z,100.00
2022-11-24T00:39:04.219Z,100.00
2022-11-24T00:41:31.534Z,100.00
2022-11-24T00:43:59.412Z,100.00
2022-11-24T00:46:27.594Z,100.00
2022-11-24T00:48:55.094Z,100.00
2022-11-24T00:51:30.406Z,100.00
2022-11-24T00:53:58.717Z,100.00
2022-11-24T00:56:26.834Z,100.00
2022-11-24T00:58:54.059Z,100.00
2022-11-24T01:01:26.348Z,100.00
2022-11-24T01:03:55.450Z,100.00
2022-11-24T01:06:25.160Z,100.00
2022-11-24T01:08:52.834Z,100.00
2022-11-24T01:11:25.761Z,100.00
2022-11-24T01:13:55.528Z,100.00
2022-11-24T01:16:29.946Z,100.00
2022-11-24T01:18:57.363Z,100.00
2022-11-24T01:21:24.709Z,100.00
2022-11-24T01:23:51.683Z,100.00
2022-11-24T01:26:22.950Z,100.00
2022-11-24T01:28:54.131Z,100.00
2022-11-24T01:31:21.228Z,100.00
2022-11-24T01:33:48.256Z,100.00
2022-11-24T01:36:15.165Z,100.00
2022-11-24T01:38:42.137Z,100.00
2022-11-24T01:41:18.431Z,100.00
2022-11-24T01:43:46.312Z,100.00
2022-11-24T01:46:28.346Z,100.00
2022-11-24T01:49:21.067Z,100.00
2022-11-24T01:52:17.062Z,100.00
2022-11-24T01:54:51.949Z,100.00
2022-11-24T01:57:25.245Z,100.00
2022-11-24T01:59:57.468Z,100.00
2022-11-24T02:02:26.330Z,100.00
2022-11-24T02:04:53.874Z,100.00
2022-11-24T02:07:21.097Z,100.00
2022-11-24T02:10:02.034Z,100.00
2022-11-24T02:12:29.134Z,100.00
2022-11-24T02:14:56.898Z,100.00
2022-11-24T02:17:23.898Z,100.00
2022-11-24T02:20:00.664Z,100.00
2022-11-24T02:22:27.604Z,100.00
2022-11-24T02:25:24.125Z,100.00
2022-11-24T02:27:54.063Z,100.00
2022-11-24T02:30:21.470Z,100.00
2022-11-24T02:32:48.389Z,100.00
2022-11-24T02:35:17.354Z,100.00
2022-11-24T02:37:44.335Z,100.00
2022-11-24T02:40:11.645Z,100.00
2022-11-24T02:42:44.529Z,100.00
2022-11-24T02:45:12.502Z,100.00
2022-11-24T02:47:39.371Z,100.00
2022-11-24T02:50:07.097Z,100.00
2022-11-24T02:52:34.237Z,100.00
2022-11-24T02:55:01.169Z,100.00
2022-11-24T02:57:28.157Z,100.00
2022-11-24T02:59:55.092Z,100.00
2022-11-24T03:02:24.741Z,100.00
2022-11-24T03:04:51.704Z,100.00
2022-11-24T03:07:18.805Z,100.00
2022-11-24T03:09:45.915Z,100.00
2022-11-24T03:12:12.807Z,100.00
2022-11-24T03:14:39.672Z,100.00
2022-11-24T03:17:07.229Z,100.00
2022-11-24T03:19:34.225Z,100.00
2022-11-24T03:22:01.212Z,100.00
2022-11-24T03:24:28.216Z,100.00
2022-11-24T03:26:55.123Z,100.00
2022-11-24T03:29:23.084Z,100.00
2022-11-24T03:31:51.250Z,100.00
2022-11-24T03:34:18.298Z,100.00
2022-11-24T03:36:45.150Z,100.00
2022-11-24T03:39:12.227Z,100.00
2022-11-24T03:41:39.099Z,99.80
2022-11-24T03:44:06.090Z,99.92
2022-11-24T03:46:33.529Z,99.66
2022-11-24T03:49:00.561Z,99.77
2022-11-24T03:51:27.515Z,99.39
2022-11-24T03:53:54.487Z,99.79
2022-11-24T03:56:21.420Z,99.66
2022-11-24T03:58:48.335Z,99.49
2022-11-24T04:01:15.328Z,99.29
2022-11-24T04:03:42.292Z,99.20
2022-11-24T04:06:09.264Z,99.21
2022-11-24T04:08:36.176Z,99.54
2022-11-24T04:11:03.136Z,99.26
2022-11-24T04:13:30.128Z,99.35
2022-11-24T04:15:56.988Z,99.37
2022-11-24T04:18:23.908Z,99.31
2022-11-24T04:20:52.040Z,98.92
2022-11-24T04:23:19.510Z,99.17
2022-11-24T04:25:46.265Z,99.04
2022-11-24T04:28:13.097Z,99.31
2022-11-24T04:30:44.828Z,99.19
2022-11-24T04:33:12.493Z,99.00
2022-11-24T04:35:39.278Z,99.15
2022-11-24T04:38:06.148Z,99.06
2022-11-24T04:40:33.051Z,99.14
2022-11-24T04:42:59.824Z,99.00
2022-11-24T04:45:26.588Z,98.92
2022-11-24T04:47:53.413Z,98.95
2022-11-24T04:50:20.942Z,99.06
2022-11-24T04:52:47.898Z,99.12
2022-11-24T04:55:14.663Z,99.05
2022-11-24T04:57:41.536Z,98.80
2022-11-24T05:00:09.270Z,98.98
2022-11-24T05:02:38.932Z,99.16
2022-11-24T05:05:06.672Z,99.44
2022-11-24T05:07:33.573Z,99.07
2022-11-24T05:10:18.889Z,99.14
2022-11-24T05:12:51.029Z,99.27
2022-11-24T05:15:18.217Z,98.98
2022-11-24T05:17:45.124Z,99.17
2022-11-24T05:20:11.996Z,98.91
2022-11-24T05:22:38.801Z,99.26
2022-11-24T05:25:05.942Z,98.94
2022-11-24T05:27:32.765Z,99.04
2022-11-24T05:29:59.542Z,99.25
2022-11-24T05:32:26.471Z,99.26
2022-11-24T05:34:54.707Z,98.87
2022-11-24T05:37:21.942Z,99.04
2022-11-24T05:39:48.755Z,99.01
2022-11-24T05:42:34.019Z,98.80
2022-11-24T05:45:00.913Z,98.89
2022-11-24T05:47:27.718Z,99.09
2022-11-24T05:49:54.599Z,98.85
2022-11-24T05:52:21.662Z,98.94
2022-11-24T05:54:48.562Z,98.82
2022-11-24T05:57:17.268Z,98.54
2022-11-24T05:59:44.324Z,98.80
2022-11-24T06:02:11.466Z,98.72
2022-11-24T06:04:38.622Z,98.49
2022-11-24T06:07:09.089Z,98.82
2022-11-24T06:09:38.049Z,98.63
2022-11-24T06:12:07.336Z,98.85
2022-11-24T06:14:34.873Z,98.78
2022-11-24T06:17:02.360Z,98.93
2022-11-24T06:19:29.456Z,98.94
2022-11-24T06:21:56.442Z,98.96
2022-11-24T06:24:23.624Z,98.83
2022-11-24T06:26:50.447Z,99.02
2022-11-24T06:29:17.297Z,98.95
2022-11-24T06:31:44.237Z,98.75
2022-11-24T06:34:12.885Z,99.12
2022-11-24T06:36:40.186Z,99.24
2022-11-24T06:39:07.580Z,98.97
2022-11-24T06:41:34.540Z,99.43
2022-11-24T06:44:03.983Z,99.38
2022-11-24T06:46:30.998Z,99.20
2022-11-24T06:48:59.825Z,99.35
2022-11-24T06:51:27.400Z,99.13
2022-11-24T06:53:54.573Z,99.25
2022-11-24T06:56:21.961Z,99.24
2022-11-24T06:58:50.923Z,99.33
2022-11-24T07:01:19.880Z,99.05
2022-11-24T07:03:48.255Z,99.19
2022-11-24T07:06:16.082Z,99.11
2022-11-24T07:08:43.027Z,99.54
2022-11-24T07:11:13.489Z,99.02
2022-11-24T07:13:40.384Z,99.43
2022-11-24T07:16:19.490Z,99.68
2022-11-24T07:18:48.258Z,99.61
2022-11-24T07:21:15.838Z,99.66
2022-11-24T07:23:42.696Z,99.51
2022-11-24T07:26:10.763Z,99.75
2022-11-24T07:28:38.115Z,99.61
2022-11-24T07:31:13.654Z,99.75
2022-11-24T07:33:41.174Z,99.80
2022-11-24T07:36:09.359Z,99.60
2022-11-24T07:38:36.579Z,99.91
2022-11-24T07:41:06.484Z,100.00
2022-11-24T07:43:35.407Z,99.70
2022-11-24T07:46:03.340Z,99.69
2022-11-24T07:48:30.282Z,99.86
2022-11-24T07:50:59.709Z,100.00
2022-11-24T07:53:26.906Z,99.75
2022-11-24T07:56:01.996Z,100.00
2022-11-24T07:58:32.907Z,100.00
2022-11-24T08:01:00.823Z,100.00
2022-11-24T08:03:28.022Z,100.00
2022-11-24T08:08:46.543Z,100.00
2022-11-24T08:11:17.091Z,100.00
2022-11-24T08:13:44.238Z,99.93
2022-11-24T08:16:13.753Z,99.84
2022-11-24T08:18:41.427Z,100.00
2022-11-24T08:21:13.086Z,100.00
2022-11-24T08:23:40.440Z,100.00
2022-11-24T08:26:09.339Z,100.00
2022-11-24T08:28:38.154Z,100.00
2022-11-24T08:31:07.735Z,100.00
2022-11-24T08:33:35.001Z,100.00
2022-11-24T08:36:09.546Z,100.00
2022-11-24T08:38:36.983Z,100.00
2022-11-24T08:41:07.183Z,100.00
2022-11-24T08:43:34.158Z,100.00
2022-11-24T08:46:06.926Z,100.00
2022-11-24T08:48:34.263Z,100.00
2022-11-24T08:51:11.819Z,100.00
2022-11-24T08:53:39.818Z,100.00
2022-11-24T08:56:07.805Z,100.00
2022-11-24T08:58:35.391Z,100.00
2022-11-24T09:01:07.359Z,100.00
2022-11-24T09:03:34.815Z,100.00
2022-11-24T09:06:02.536Z,100.00
2022-11-24T09:08:30.748Z,100.00
2022-11-24T09:11:09.960Z,100.00
2022-11-24T09:13:38.176Z,100.00
2022-11-24T09:16:10.332Z,100.00
2022-11-24T09:18:37.838Z,100.00
2022-11-24T09:21:20.087Z,100.00
2022-11-24T09:23:49.258Z,100.00
2022-11-24T09:26:21.455Z,100.00
2022-11-24T09:28:49.386Z,100.00
2022-11-24T09:31:18.128Z,100.00
2022-11-24T09:33:47.119Z,99.78
2022-11-24T09:36:14.821Z,100.00
2022-11-24T09:38:42.027Z,99.83
2022-11-24T09:41:22.311Z,99.96
2022-11-24T09:43:56.587Z,99.76
2022-11-24T09:46:28.663Z,100.00
2022-11-24T09:48:58.027Z,100.00
2022-11-24T09:51:31.672Z,100.00
2022-11-24T09:54:06.041Z,100.00
2022-11-24T09:56:35.774Z,100.00
2022-11-24T09:59:10.776Z,99.84
2022-11-24T10:01:42.068Z,100.00
2022-11-24T10:04:25.347Z,99.82
2022-11-24T10:07:09.679Z,100.00
2022-11-24T10:09:51.893Z,99.94
2022-11-24T10:12:36.852Z,99.85
2022-11-24T10:15:15.754Z,99.70
2022-11-24T10:17:54.697Z,99.82
2022-11-24T10:21:03.155Z,99.71
2022-11-24T10:24:02.125Z,99.56
2022-11-24T10:26:37.436Z,99.57
2022-11-24T10:29:31.061Z,99.43
2022-11-24T10:31:58.188Z,99.29
2022-11-24T10:34:32.797Z,99.06
2022-11-24T10:37:14.309Z,99.09
2022-11-24T10:39:44.109Z,99.05
2022-11-24T10:42:15.810Z,99.06
2022-11-24T10:44:43.288Z,98.99
2022-11-24T10:47:19.499Z,98.96
2022-11-24T10:50:36.463Z,98.70
2022-11-24T10:53:25.913Z,98.51
2022-11-24T10:55:56.003Z,98.39
2022-11-24T10:58:36.078Z,98.47
2022-11-24T11:01:13.477Z,98.23
2022-11-24T11:03:48.100Z,98.17
2022-11-24T11:06:29.726Z,97.43
2022-11-24T11:09:10.794Z,97.50
2022-11-24T11:11:40.181Z,97.29
2022-11-24T11:14:10.266Z,97.20
2022-11-24T11:16:54.818Z,96.60
2022-11-24T11:19:49.819Z,96.25
2022-11-24T11:22:35.322Z,95.94
2022-11-24T11:25:18.281Z,95.48
2022-11-24T11:27:45.624Z,95.36
2022-11-24T11:36:14.405Z,95.04
2022-11-24T11:38:46.221Z,94.79
2022-11-24T11:41:24.512Z,94.86
2022-11-24T11:44:05.114Z,95.00
2022-11-24T11:46:34.037Z,94.83
2022-11-24T11:49:01.373Z,94.51
2022-11-24T11:51:52.566Z,94.39
2022-11-24T11:54:25.698Z,94.13
2022-11-24T11:57:15.929Z,93.94
2022-11-24T11:59:45.766Z,93.74
2022-11-24T12:02:34.605Z,93.41
2022-11-24T12:05:27.654Z,92.91
2022-11-24T12:08:23.647Z,92.87
2022-11-24T12:11:01.897Z,92.90
2022-11-24T12:13:56.501Z,91.98
2022-11-24T12:16:55.760Z,92.26
2022-11-24T12:19:31.543Z,92.50
2022-11-24T12:22:20.479Z,92.53
2022-11-24T12:25:00.776Z,92.15
2022-11-24T12:27:47.512Z,91.97
2022-11-24T12:30:19.777Z,91.91
2022-11-24T12:33:31.573Z,91.59
2022-11-24T12:36:10.916Z,91.61
2022-11-24T12:38:44.364Z,91.39
2022-11-24T12:41:42.950Z,91.50
2022-11-24T12:44:22.202Z,90.88
2022-11-24T12:47:24.346Z,89.94
2022-11-24T12:50:12.102Z,89.64
2022-11-24T12:52:54.112Z,90.10
2022-11-24T12:55:25.671Z,89.80
2022-11-24T12:58:18.383Z,89.41
2022-11-24T13:01:22.756Z,89.47
2022-11-24T13:04:07.805Z,89.37
2022-11-24T13:07:00.118Z,89.10
2022-11-24T13:09:26.946Z,89.47
2022-11-24T13:12:08.476Z,89.41
2022-11-24T13:14:38.212Z,89.05
2022-11-24T13:17:38.338Z,88.70
2022-11-24T13:20:33.517Z,88.50
2022-11-24T13:23:05.780Z,88.55
2022-11-24T13:25:36.159Z,88.49
2022-11-24T13:28:06.741Z,88.97
2022-11-24T13:30:33.466Z,88.78
2022-11-24T13:33:03.890Z,88.54
2022-11-24T13:35:31.048Z,88.25
2022-11-24T13:37:57.946Z,88.03
2022-11-24T13:40:26.525Z,88.01
2022-11-24T13:42:57.661Z,88.19
2022-11-24T13:45:40.318Z,88.29
2022-11-24T13:48:14.035Z,88.30
2022-11-24T13:50:50.184Z,88.51
2022-11-24T13:53:45.437Z,88.43
2022-11-24T13:56:12.185Z,88.37
2022-11-24T13:58:50.492Z,88.74
2022-11-24T14:01:26.439Z,88.67
2022-11-24T14:04:32.089Z,88.60
2022-11-24T14:07:14.710Z,88.56
2022-11-24T14:09:41.679Z,88.83
2022-11-24T14:12:26.368Z,88.69
2022-11-24T14:14:57.416Z,88.86
2022-11-24T14:17:28.626Z,88.66
2022-11-24T14:19:57.832Z,88.91
2022-11-24T14:22:32.925Z,89.04
2022-11-24T14:25:01.761Z,89.22
2022-11-24T14:27:39.241Z,89.37
2022-11-24T14:30:20.862Z,89.56
2022-11-24T14:32:59.615Z,89.81
2022-11-24T14:35:26.747Z,89.92
2022-11-24T14:37:53.800Z,90.02
2022-11-24T14:40:55.228Z,89.91
2022-11-24T14:43:32.942Z,89.97
2022-11-24T14:46:02.318Z,90.18
2022-11-24T14:48:38.422Z,90.33
2022-11-24T14:51:13.722Z,90.50
2022-11-24T14:53:45.827Z,90.61
2022-11-24T14:56:34.694Z,90.79
2022-11-24T14:59:02.629Z,90.80
2022-11-24T15:01:33.050Z,90.99
2022-11-24T15:04:46.712Z,91.21
2022-11-24T15:07:13.895Z,91.28
2022-11-24T15:09:43.683Z,91.27
2022-11-24T15:12:23.479Z,91.35
2022-11-24T15:14:52.225Z,91.71
2022-11-24T15:17:23.814Z,91.45
2022-11-24T15:20:09.872Z,91.73
2022-11-24T15:22:40.305Z,91.87
2022-11-24T15:25:30.116Z,92.16
2022-11-24T15:27:57.639Z,92.13
2022-11-24T15:30:25.013Z,92.30
2022-11-24T15:32:57.334Z,92.45
2022-11-24T15:35:26.698Z,92.81
2022-11-24T15:37:53.754Z,92.47
2022-11-24T15:40:20.763Z,92.84
2022-11-24T15:42:55.621Z,92.61
2022-11-24T15:45:24.892Z,92.70
2022-11-24T15:47:51.720Z,93.10
2022-11-24T15:50:19.849Z,93.13
2022-11-24T15:52:47.730Z,93.41
2022-11-24T15:55:20.274Z,93.24
2022-11-24T15:57:48.226Z,93.39
2022-11-24T16:00:20.360Z,93.47
2022-11-24T16:02:47.356Z,93.75
2022-11-24T16:05:15.131Z,93.67
2022-11-24T16:07:42.488Z,93.86
2022-11-24T16:10:25.308Z,94.01
2022-11-24T16:12:52.219Z,94.39
2022-11-24T16:15:18.962Z,94.26
2022-11-24T16:17:45.767Z,94.44
2022-11-24T16:20:12.865Z,94.43
2022-11-24T16:22:39.911Z,94.63
2022-11-24T16:25:08.494Z,94.70
2022-11-24T16:27:35.353Z,94.65
2022-11-24T16:30:02.416Z,95.01
2022-11-24T16:32:29.310Z,94.80
2022-11-24T16:34:56.194Z,95.28
2022-11-24T16:37:23.356Z,94.92
2022-11-24T16:39:50.785Z,94.94
2022-11-24T16:42:17.808Z,95.27
2022-11-24T16:44:44.778Z,95.19
2022-11-24T16:47:13.207Z,95.11
2022-11-24T16:49:40.183Z,95.29
2022-11-24T16:52:08.660Z,95.52
2022-11-24T16:54:37.094Z,95.40
2022-11-24T16:57:04.205Z,95.75
2022-11-24T16:59:31.162Z,95.53
2022-11-24T17:01:57.971Z,95.63
2022-11-24T17:04:25.972Z,95.61
2022-11-24T17:06:52.768Z,95.77
2022-11-24T17:09:19.640Z,95.74
2022-11-24T17:11:46.691Z,95.98
2022-11-24T17:14:14.829Z,95.91
2022-11-24T17:16:41.852Z,95.75
2022-11-24T17:19:08.917Z,96.33
2022-11-24T17:21:35.859Z,96.12
2022-11-24T17:24:06.927Z,96.36
2022-11-24T17:26:34.081Z,96.22
2022-11-24T17:29:01.129Z,96.49
2022-11-24T17:31:32.293Z,96.54
2022-11-24T17:34:00.622Z,96.73
2022-11-24T17:36:29.606Z,96.71
2022-11-24T17:38:56.906Z,96.96
2022-11-24T17:41:23.833Z,96.71
2022-11-24T17:43:51.859Z,96.98
2022-11-24T17:46:19.405Z,96.98
2022-11-24T17:48:47.152Z,96.68
2022-11-24T17:51:16.528Z,96.53
2022-11-24T17:53:46.146Z,96.65
2022-11-24T17:56:18.803Z,96.48
2022-11-24T17:58:45.723Z,96.85
2022-11-24T18:01:13.703Z,96.80
2022-11-24T18:03:41.421Z,96.98
2022-11-24T18:06:13.585Z,96.93
2022-11-24T18:08:42.800Z,96.62
2022-11-24T18:11:24.673Z,96.75
2022-11-24T18:14:00.773Z,96.89
2022-11-24T18:16:30.558Z,97.04
2022-11-24T18:19:11.024Z,96.72
2022-11-24T18:21:42.387Z,97.11
2022-11-24T18:24:10.694Z,96.90
2022-11-24T18:26:38.391Z,96.46
2022-11-24T18:29:05.447Z,96.73
2022-11-24T18:31:34.474Z,97.00
2022-11-24T18:34:02.720Z,96.75
2022-11-24T18:36:30.800Z,96.93
2022-11-24T18:39:02.401Z,96.86
2022-11-24T18:41:29.319Z,96.95
2022-11-24T18:43:56.158Z,96.66
2022-11-24T18:46:23.192Z,96.50
2022-11-24T18:48:52.198Z,96.13
2022-11-24T18:51:19.588Z,96.47
2022-11-24T18:53:50.715Z,96.39
2022-11-24T18:56:18.133Z,96.38
2022-11-24T18:58:45.548Z,95.85
2022-11-24T19:01:17.956Z,95.88
2022-11-24T19:03:50.475Z,95.77
2022-11-24T19:06:20.223Z,95.92
2022-11-24T19:08:49.093Z,96.13
2022-11-24T19:11:18.158Z,95.78
2022-11-24T19:13:45.318Z,95.70
2022-11-24T19:16:13.087Z,95.90
2022-11-24T19:18:40.163Z,95.77
2022-11-24T19:21:07.359Z,95.57
2022-11-24T19:23:34.917Z,95.78
2022-11-24T19:26:02.933Z,95.64
2022-11-24T19:28:30.153Z,95.47
2022-11-24T19:31:01.627Z,95.51
2022-11-24T19:33:28.496Z,95.52
2022-11-24T19:36:14.945Z,95.41
2022-11-24T19:38:43.418Z,95.54
2022-11-24T19:41:12.721Z,95.42
2022-11-24T19:43:40.835Z,95.49
2022-11-24T19:46:10.222Z,95.63
2022-11-24T19:48:50.270Z,95.37
2022-11-24T19:51:30.633Z,95.13
2022-11-24T19:53:58.388Z,95.50
2022-11-24T19:56:27.707Z,95.34
2022-11-24T19:58:56.116Z,94.98
2022-11-24T20:01:27.262Z,94.93
2022-11-24T20:04:01.534Z,95.18
2022-11-24T20:06:31.330Z,94.85
2022-11-24T20:09:00.671Z,94.98
2022-11-24T20:11:28.835Z,94.94
2022-11-24T20:13:56.789Z,94.78
2022-11-24T20:16:30.050Z,94.76
2022-11-24T20:19:02.333Z,95.02
2022-11-24T20:21:33.025Z,94.86
2022-11-24T20:24:06.206Z,95.12
2022-11-24T20:26:35.902Z,94.85
2022-11-24T20:29:04.143Z,95.06
2022-11-24T20:31:34.149Z,94.65
2022-11-24T20:34:02.775Z,94.79
2022-11-24T20:36:31.335Z,94.79
2022-11-24T20:39:00.861Z,94.68
2022-11-24T20:41:30.519Z,94.65
2022-11-24T20:44:00.968Z,94.74
2022-11-24T20:46:30.798Z,94.59
2022-11-24T20:48:58.319Z,94.93
2022-11-24T20:51:31.704Z,95.07
2022-11-24T20:54:01.437Z,94.73
2022-11-24T20:56:31.168Z,94.97
2022-11-24T20:58:59.363Z,94.86
2022-11-24T21:01:29.787Z,94.39
2022-11-24T21:03:59.024Z,94.65
2022-11-24T21:06:28.404Z,94.83
2022-11-24T21:09:01.965Z,94.28
2022-11-24T21:11:31.368Z,94.28
2022-11-24T21:13:58.781Z,94.35
2022-11-24T21:16:28.798Z,94.26
2022-11-24T21:19:01.522Z,94.57
2022-11-24T21:21:34.187Z,94.36
2022-11-24T21:24:02.845Z,94.35
2022-11-24T21:26:30.082Z,94.39
2022-11-24T21:28:57.554Z,94.35
2022-11-24T21:31:24.563Z,94.25
2022-11-24T21:33:53.465Z,94.02
2022-11-24T21:36:25.369Z,94.25
2022-11-24T21:38:57.214Z,94.00
2022-11-24T21:41:26.729Z,94.24
2022-11-24T21:43:56.093Z,94.16
2022-11-24T21:46:23.747Z,94.00
2022-11-24T21:48:51.132Z,93.77
2022-11-24T21:51:20.417Z,93.84
2022-11-24T21:53:47.795Z,93.85
2022-11-24T21:56:17.599Z,93.55
2022-11-24T21:58:46.035Z,93.85
2022-11-24T22:01:13.788Z,93.92
2022-11-24T22:03:40.958Z,93.76
2022-11-24T22:06:08.513Z,94.12
2022-11-24T22:08:35.950Z,94.10
2022-11-24T22:11:08.641Z,94.20
2022-11-24T22:13:35.909Z,93.84
2022-11-24T22:16:07.835Z,94.08
2022-11-24T22:18:36.925Z,94.23
2022-11-24T22:21:05.003Z,93.99
2022-11-24T22:23:33.174Z,94.24
2022-11-24T22:26:17.481Z,94.36
2022-11-24T22:28:45.430Z,94.11
2022-11-24T22:31:19.448Z,94.26
2022-11-24T22:33:48.583Z,93.71
2022-11-24T22:36:17.183Z,93.91
2022-11-24T22:38:44.429Z,94.07
2022-11-24T22:41:14.419Z,93.75
2022-11-24T22:43:42.868Z,93.61
2022-11-24T22:46:21.501Z,94.02
2022-11-24T22:48:49.936Z,94.08
2022-11-24T22:51:19.425Z,93.92
2022-11-24T22:53:55.317Z,94.06
2022-11-24T22:56:23.086Z,93.83
2022-11-24T22:58:50.875Z,93.75
2022-11-24T23:01:23.366Z,93.94
2022-11-24T23:03:53.833Z,94.01
2022-11-24T23:06:23.274Z,93.96
2022-11-24T23:08:51.023Z,94.01
2022-11-24T23:11:36.403Z,94.27
2022-11-24T23:14:06.813Z,94.15
2022-11-24T23:16:33.707Z,94.32
2022-11-24T23:19:00.658Z,94.39
2022-11-24T23:21:32.152Z,94.35
2022-11-24T23:24:01.300Z,94.05
2022-11-24T23:26:30.469Z,94.20
2022-11-24T23:28:57.388Z,94.41
2022-11-24T23:31:29.770Z,94.35
2022-11-24T23:34:02.180Z,94.26
2022-11-24T23:36:30.157Z,94.79
2022-11-24T23:39:01.745Z,94.83
2022-11-24T23:41:30.889Z,95.14
2022-11-24T23:43:58.139Z,95.13
2022-11-24T23:46:26.871Z,95.42
2022-11-24T23:48:54.955Z,95.30
2022-11-24T23:51:30.167Z,95.72
2022-11-24T23:53:58.350Z,95.62
2022-11-24T23:56:30.803Z,95.80
